This is the latest recevied weather packets stored in our database for station/object K9JVA. If no packets are shown the sender has not sent any weather packets the latest 10 day(s).
| Time | Temp. | Humidity | Pressure | Rain* | Wind** | Luminosity | Snow |
|---|---|---|---|---|---|---|---|
| 1777348500 | 15.56° C | 94% | 1010.8 hPa | 0 mm | - | - | - |
| 1777347874 | 15.56° C | 94% | 1011.5 hPa | 0 mm | - | - | - |
| 1777346975 | 15.56° C | 94% | 1012.2 hPa | 0 mm | - | - | - |
| 1777346673 | 15.56° C | 94% | 1011.6 hPa | 0 mm | - | - | - |
| 1777344453 | 16.11° C | 95% | 1010.5 hPa | 0 mm | - | - | - |
| 1777341543 | 16.11° C | 93% | 1014.1 hPa | 0 mm | - | - | - |
| 1777339296 | 16.67° C | 93% | 1014.3 hPa | 0 mm | - | - | - |
| 1777338036 | 16.67° C | 92% | 1014.9 hPa | 0 mm | - | - | - |
| 1777337437 | 16.67° C | 90% | 1015.4 hPa | 0 mm | - | - | - |
| 1777334978 | 16.67° C | 89% | 1014.9 hPa | 0 mm | - | - | - |
| 1777334077 | 17.22° C | 88% | 1014.3 hPa | 0 mm | - | - | - |
| 1777330958 | 20° C | 79% | 1014.7 hPa | 0 mm | - | - | - |
| 1777329999 | 20.56° C | 76% | 1014 hPa | 0 mm | - | - | - |
| 1777325680 | 22.78° C | 64% | 1011.1 hPa | 0 mm | - | - | - |
| 1777324176 | 23.33° C | 65% | 1011 hPa | 0 mm | - | - | - |
| 1777323875 | 23.33° C | 65% | 1011.1 hPa | 0 mm | - | - | - |
| 1777323415 | 23.89° C | 62% | 1011.2 hPa | 0 mm | - | - | - |
| 1777321180 | 25° C | 57% | 1012.4 hPa | 0 mm | - | - | - |
| 1777320456 | 25.56° C | 57% | 1012.6 hPa | 0 mm | - | - | - |
| 1777320156 | 25.56° C | 56% | 1012.7 hPa | 0 mm | - | - | - |
| 1777317637 | 26.67° C | 54% | 1012.9 hPa | 0 mm | - | - | - |
| 1777316078 | 26.67° C | 54% | 1012.7 hPa | 0 mm | - | - | - |
| 1777315178 | 27.22° C | 54% | 1013.2 hPa | 0 mm | - | - | - |
| 1777314292 | 26.67° C | 56% | 1013.8 hPa | 0 mm | - | - | - |
| 1777313980 | 26.67° C | 56% | 1013.8 hPa | 0 mm | - | - | - |
* Rain since midnight (hover to see other rain measurements)
** Current wind speed in m/s (hover to see current wind gust speed)